createdAt,value
2017-05-10T00:48:43.811Z,-6.55
2017-05-10T00:49:43.786Z,-6.55
2017-05-10T00:50:43.764Z,-6.48
2017-05-10T00:51:43.446Z,-6.48
2017-05-10T00:52:43.428Z,-6.5
2017-05-10T00:53:43.704Z,-6.53
2017-05-10T00:54:43.682Z,-6.53
2017-05-10T00:55:43.656Z,-6.53
2017-05-10T00:56:43.636Z,-6.55
2017-05-10T00:57:43.620Z,-6.53
2017-05-10T00:58:43.592Z,-6.42
2017-05-10T00:59:43.571Z,-6.53
2017-05-10T01:00:43.551Z,-6.55
2017-05-10T01:01:43.526Z,-6.39
2017-05-10T01:02:43.506Z,-6.5
2017-05-10T01:03:43.521Z,-6.47
2017-05-10T01:04:43.469Z,-6.48
2017-05-10T01:05:43.441Z,-6.52
2017-05-10T01:06:43.417Z,-6.48
2017-05-10T01:07:43.397Z,-6.48
2017-05-10T01:08:43.375Z,-6.55
2017-05-10T01:09:43.355Z,-6.55
2017-05-10T01:10:43.026Z,-6.55
2017-05-10T01:11:43.304Z,-6.52
2017-05-10T01:12:42.987Z,-6.53
2017-05-10T01:13:43.365Z,-6.47
2017-05-10T01:14:42.945Z,-6.55
2017-05-10T01:15:43.221Z,-6.55
2017-05-10T01:16:43.203Z,-6.55
2017-05-10T01:17:42.879Z,-6.55
2017-05-10T01:18:43.167Z,-6.55
2017-05-10T01:19:43.135Z,-6.5
2017-05-10T01:20:43.115Z,-6.52
2017-05-10T01:21:43.088Z,-6.56
2017-05-10T01:22:43.064Z,-6.55
2017-05-10T01:23:43.049Z,-6.52
2017-05-10T01:24:43.027Z,-6.55
2017-05-10T01:25:43.000Z,-6.47
2017-05-10T01:26:42.980Z,-6.53
2017-05-10T01:27:42.957Z,-6.42
2017-05-10T01:28:42.945Z,-6.47
2017-05-10T01:29:42.920Z,-6.5
2017-05-10T01:30:42.898Z,-6.55
2017-05-10T01:31:42.870Z,-6.5
2017-05-10T01:32:42.547Z,-6.55
2017-05-10T01:33:42.827Z,-6.55
2017-05-10T01:34:42.804Z,-6.53
2017-05-10T01:35:42.783Z,-6.45
2017-05-10T01:36:42.755Z,-6.45
2017-05-10T01:37:42.737Z,-6.45
2017-05-10T01:38:42.714Z,-6.45
2017-05-10T01:39:57.308Z,-6.53
2017-05-10T01:41:57.259Z,-6.41
2017-05-10T01:42:42.629Z,-6.39
2017-05-10T01:43:42.603Z,-6.5
2017-05-10T01:44:42.590Z,-6.48
2017-05-10T01:45:42.560Z,-6.53
2017-05-10T01:46:42.538Z,-6.47
2017-05-10T01:47:42.522Z,-6.48
2017-05-10T01:49:51.029Z,-6.48
2017-05-10T01:50:51.002Z,-6.55
2017-05-10T01:51:50.979Z,-6.52
2017-05-10T01:52:50.958Z,-6.48
2017-05-10T01:55:50.896Z,-6.38
2017-05-10T01:56:50.866Z,-6.38
2017-05-10T01:58:50.829Z,-6.37
2017-05-10T01:59:50.806Z,-6.48
2017-05-10T02:00:50.825Z,-6.38
2017-05-10T02:01:50.457Z,-6.37
2017-05-10T02:02:50.743Z,-6.44
2017-05-10T02:03:50.436Z,-6.38
2017-05-10T02:04:50.393Z,-6.5
2017-05-10T02:05:50.670Z,-6.34
2017-05-10T02:07:05.255Z,-6.47
2017-05-10T02:07:50.630Z,-6.47
2017-05-10T02:08:50.608Z,-6.41
2017-05-10T02:09:50.584Z,-6.38
2017-05-10T02:12:13.702Z,-6.35
2017-05-10T02:13:13.671Z,-6.45
2017-05-10T02:14:13.357Z,-6.35
2017-05-10T02:15:13.667Z,-6.42
2017-05-10T02:16:13.608Z,-6.38
2017-05-10T02:17:13.289Z,-6.35
2017-05-10T02:18:13.563Z,-6.41
2017-05-10T02:19:13.544Z,-6.38
2017-05-10T02:20:28.132Z,-6.35
2017-05-10T02:21:13.501Z,-6.32
2017-05-10T02:22:13.479Z,-6.34
2017-05-10T02:23:13.456Z,-6.26
2017-05-10T02:24:13.130Z,-6.39
2017-05-10T02:25:13.409Z,-6.42
2017-05-10T02:26:13.389Z,-6.35
2017-05-10T02:27:13.065Z,-6.47
2017-05-10T02:28:13.040Z,-6.45
2017-05-10T02:29:13.026Z,-6.31
2017-05-10T02:30:12.996Z,-6.39
2017-05-10T02:31:13.279Z,-6.35
2017-05-10T02:32:13.254Z,-6.37
2017-05-10T02:33:13.231Z,-6.37
2017-05-10T02:34:13.209Z,-6.38
2017-05-10T02:35:13.189Z,-6.27
2017-05-10T02:36:13.165Z,-6.38
2017-05-10T02:37:13.148Z,-6.34
2017-05-10T02:38:13.124Z,-6.38
2017-05-10T02:39:12.798Z,-6.38
2017-05-10T02:40:13.078Z,-6.42
2017-05-10T02:41:13.059Z,-6.48
2017-05-10T02:42:27.643Z,-6.47
2017-05-10T02:43:13.013Z,-6.38
2017-05-10T02:44:12.992Z,-6.44
2017-05-10T02:45:12.969Z,-6.42
2017-05-10T02:46:12.646Z,-6.31
2017-05-10T02:47:12.928Z,-6.32
2017-05-10T02:48:12.899Z,-6.34
2017-05-10T02:49:12.611Z,-6.29
2017-05-10T02:50:12.858Z,-6.27
2017-05-10T02:51:12.533Z,-6.24
2017-05-10T02:52:12.515Z,-6.2
2017-05-10T02:53:12.833Z,-6.14
2017-05-10T02:54:12.770Z,-6.21
2017-05-10T02:55:41.968Z,-6.23
2017-05-10T02:56:12.422Z,-6.27
2017-05-10T02:57:12.710Z,-6.35
2017-05-10T02:58:12.682Z,-6.29
2017-05-10T02:59:12.358Z,-6.31
2017-05-10T03:00:12.639Z,-6.26
2017-05-10T03:01:12.311Z,-6.06
2017-05-10T03:02:12.598Z,-6.13
2017-05-10T03:03:12.575Z,-6.14
2017-05-10T03:04:12.250Z,-6.24
2017-05-10T03:05:27.139Z,-6.1
2017-05-10T03:06:12.510Z,-6.27
2017-05-10T03:07:12.487Z,-6.1
2017-05-10T03:08:12.459Z,-6.1
2017-05-10T03:09:27.053Z,-6.09
2017-05-10T03:10:12.121Z,-6.1
2017-05-10T03:12:20.937Z,-6
2017-05-10T03:13:20.908Z,-5.98
2017-05-10T03:14:20.884Z,-6.09
2017-05-10T03:15:20.859Z,-6.06
2017-05-10T03:16:20.842Z,-6.14
2017-05-10T03:17:20.820Z,-6.09
2017-05-10T03:18:20.801Z,-6
2017-05-10T03:19:20.825Z,-6
2017-05-10T03:20:20.454Z,-5.98
2017-05-10T03:21:20.733Z,-5.9
2017-05-10T03:22:20.716Z,-5.77
2017-05-10T03:23:20.686Z,-5.9
2017-05-10T03:24:20.672Z,-5.96
2017-05-10T03:25:20.648Z,-5.9
2017-05-10T03:26:20.627Z,-5.84
2017-05-10T03:27:20.600Z,-5.87
2017-05-10T03:28:20.580Z,-5.81
2017-05-10T03:29:20.565Z,-5.81
2017-05-10T03:30:20.538Z,-5.91
2017-05-10T03:31:20.245Z,-5.81
2017-05-10T03:32:20.497Z,-5.81
2017-05-10T03:33:20.479Z,-5.88
2017-05-10T03:34:20.451Z,-5.85
2017-05-10T03:35:20.429Z,-5.78
2017-05-10T03:36:20.410Z,-5.75
2017-05-10T03:37:20.395Z,-5.81
2017-05-10T03:38:20.363Z,-5.78
2017-05-10T03:39:20.090Z,-5.71
2017-05-10T03:40:20.325Z,-5.81
2017-05-10T03:41:20.301Z,-5.78
2017-05-10T03:42:20.279Z,-5.75
2017-05-10T03:43:19.959Z,-5.81
2017-05-10T03:44:20.239Z,-5.78
2017-05-10T03:45:20.223Z,-5.75
2017-05-10T03:46:20.199Z,-5.77
2017-05-10T03:47:20.175Z,-5.57
2017-05-10T03:48:20.155Z,-5.63
2017-05-10T03:49:20.131Z,-5.62
2017-05-10T03:50:20.108Z,-5.6
2017-05-10T03:51:20.088Z,-5.48
2017-05-10T03:52:20.069Z,-5.49
2017-05-10T03:53:20.048Z,-5.34
2017-05-10T03:54:20.026Z,-5.34
2017-05-10T03:55:20.001Z,-5.35
2017-05-10T03:56:19.981Z,-5.39
2017-05-10T03:57:19.963Z,-5.38
2017-05-10T03:58:19.940Z,-5.39
2017-05-10T03:59:19.918Z,-5.45
2017-05-10T04:00:19.899Z,-5.42
2017-05-10T04:01:19.879Z,-5.33
2017-05-10T04:02:19.555Z,-5.38
2017-05-10T04:03:19.840Z,-5.39
2017-05-10T04:04:19.812Z,-5.46
2017-05-10T04:05:19.794Z,-5.35
2017-05-10T04:06:19.775Z,-5.28
2017-05-10T04:07:19.753Z,-5.2
2017-05-10T04:08:19.735Z,-5.3
2017-05-10T04:09:19.709Z,-5.13
2017-05-10T04:10:19.692Z,-5.13
2017-05-10T04:11:19.366Z,-5.09
2017-05-10T04:12:19.649Z,-5.11
2017-05-10T04:13:19.627Z,-5.11
2017-05-10T04:14:19.606Z,-5.05
2017-05-10T04:15:19.591Z,-5.06
2017-05-10T04:16:19.262Z,-5.11
2017-05-10T04:17:19.540Z,-5.09
2017-05-10T04:18:19.519Z,-4.94
2017-05-10T04:19:19.497Z,-4.85
2017-05-10T04:20:19.475Z,-4.91
2017-05-10T04:21:19.454Z,-4.88
2017-05-10T04:22:19.437Z,-4.85
2017-05-10T04:23:19.412Z,-4.87
2017-05-10T04:24:19.399Z,-4.87
2017-05-10T04:25:19.374Z,-4.83
2017-05-10T04:26:19.352Z,-4.83
2017-05-10T04:27:19.333Z,-4.74
2017-05-10T04:28:19.308Z,-4.83
2017-05-10T04:29:18.991Z,-4.84
2017-05-10T04:30:19.264Z,-4.83
2017-05-10T04:31:19.243Z,-4.83
2017-05-10T04:32:19.241Z,-4.97
2017-05-10T04:33:19.204Z,-4.9
2017-05-10T04:34:19.182Z,-4.99
2017-05-10T04:35:19.161Z,-5.05
2017-05-10T04:36:18.838Z,-4.87
2017-05-10T04:37:19.123Z,-4.87
2017-05-10T04:38:18.797Z,-4.79
2017-05-10T04:39:19.073Z,-4.81
2017-05-10T04:40:19.057Z,-4.88
2017-05-10T04:41:19.034Z,-4.63
2017-05-10T04:42:18.718Z,-4.59
2017-05-10T04:43:18.995Z,-4.56
2017-05-10T04:44:18.972Z,-4.56
2017-05-10T04:45:32.333Z,-4.41
2017-05-10T04:46:18.933Z,-4.45
2017-05-10T04:47:18.611Z,-4.59
2017-05-10T04:48:19.090Z,-4.4
2017-05-10T04:49:32.255Z,-4.58
2017-05-10T04:50:18.849Z,-4.51
2017-05-10T04:51:18.531Z,-4.45
2017-05-10T04:52:18.808Z,-4.41
2017-05-10T04:53:18.490Z,-4.22
2017-05-10T04:54:18.774Z,-4.33
2017-05-10T04:55:18.747Z,-4.23
2017-05-10T04:56:18.729Z,-4.09
2017-05-10T04:57:18.708Z,-4.15
2017-05-10T04:58:18.389Z,-4.19
2017-05-10T04:59:18.667Z,-4.2
2017-05-10T05:00:18.648Z,-4.27
2017-05-10T05:01:18.631Z,-4.26
2017-05-10T05:02:18.608Z,-4.2
2017-05-10T05:03:18.588Z,-4.28
2017-05-10T05:04:18.567Z,-4.33
2017-05-10T05:05:18.548Z,-4.23
2017-05-10T05:06:18.228Z,-4.19
2017-05-10T05:07:18.204Z,-4.15
2017-05-10T05:08:18.184Z,-4.26
2017-05-10T05:09:18.467Z,-4.26
2017-05-10T05:10:18.449Z,-4.27
2017-05-10T05:11:18.427Z,-4.09
2017-05-10T05:12:18.410Z,-4.17
2017-05-10T05:13:18.390Z,-4.16
2017-05-10T05:14:18.374Z,-4.13
2017-05-10T05:15:18.347Z,-4.09
2017-05-10T05:16:18.023Z,-4.07
2017-05-10T05:17:18.523Z,-4.1
2017-05-10T05:18:31.678Z,-4.12
2017-05-10T05:19:18.265Z,-4.06
2017-05-10T05:20:17.944Z,-4.09
2017-05-10T05:21:18.229Z,-4.04
2017-05-10T05:22:17.904Z,-3.98
2017-05-10T05:23:18.186Z,-4.07
2017-05-10T05:24:17.863Z,-4.02
2017-05-10T05:25:18.148Z,-4.01
2017-05-10T05:26:18.123Z,-3.98
2017-05-10T05:27:18.108Z,-3.99
2017-05-10T05:28:17.789Z,-3.92
2017-05-10T05:29:18.068Z,-3.98
2017-05-10T05:30:18.047Z,-3.95
2017-05-10T05:31:18.029Z,-3.99
2017-05-10T05:32:18.001Z,-3.86
2017-05-10T05:33:18.018Z,-3.98
2017-05-10T05:34:17.968Z,-3.89
2017-05-10T05:35:17.649Z,-3.89
2017-05-10T05:36:17.929Z,-3.89
2017-05-10T05:37:17.604Z,-3.91
2017-05-10T05:38:17.887Z,-3.91
2017-05-10T05:39:17.867Z,-3.98
2017-05-10T05:40:17.544Z,-3.97
2017-05-10T05:41:17.827Z,-3.95
2017-05-10T05:42:17.812Z,-3.99
2017-05-10T05:43:17.495Z,-3.97
2017-05-10T05:44:17.765Z,-3.99
2017-05-10T05:45:17.745Z,-3.95
2017-05-10T05:46:17.636Z,-4.01
2017-05-10T05:47:17.402Z,-3.88
2017-05-10T05:48:17.689Z,-3.8
2017-05-10T05:49:17.669Z,-3.83
2017-05-10T05:50:17.868Z,-3.89
2017-05-10T05:51:17.628Z,-3.8
2017-05-10T05:52:17.614Z,-3.92
2017-05-10T05:53:17.287Z,-3.77
2017-05-10T05:54:17.567Z,-3.79
2017-05-10T05:55:17.761Z,-3.74
2017-05-10T05:56:17.529Z,-3.79
2017-05-10T05:57:17.514Z,-3.8
2017-05-10T05:58:17.688Z,-3.81
2017-05-10T05:59:17.170Z,-3.77
2017-05-10T06:00:17.451Z,-3.79
2017-05-10T06:01:17.433Z,-3.64
2017-05-10T06:02:17.109Z,-3.77
2017-05-10T06:03:17.388Z,-3.61
2017-05-10T06:04:17.374Z,-3.72
2017-05-10T06:05:17.351Z,-3.64
2017-05-10T06:06:17.389Z,-3.65
2017-05-10T06:07:17.311Z,-3.69
2017-05-10T06:08:17.294Z,-3.72
2017-05-10T06:09:17.272Z,-3.72
2017-05-10T06:10:17.257Z,-3.72
2017-05-10T06:11:16.932Z,-3.61
2017-05-10T06:12:17.211Z,-3.64
2017-05-10T06:13:17.197Z,-3.57
2017-05-10T06:14:17.177Z,-3.52
2017-05-10T06:15:17.156Z,-3.49
2017-05-10T06:16:17.141Z,-3.43
2017-05-10T06:17:17.119Z,-3.62
2017-05-10T06:18:16.797Z,-3.57
2017-05-10T06:19:17.082Z,-3.59
2017-05-10T06:20:17.063Z,-3.52
2017-05-10T06:21:17.038Z,-3.52
2017-05-10T06:22:17.023Z,-3.37
2017-05-10T06:23:17.004Z,-3.31
2017-05-10T06:24:30.368Z,-3.31
2017-05-10T06:25:16.964Z,-3.43
2017-05-10T06:26:16.947Z,-3.46
2017-05-10T06:27:16.625Z,-3.52
2017-05-10T06:28:17.117Z,-3.43
2017-05-10T06:29:16.888Z,-3.43
2017-05-10T06:30:16.871Z,-3.52
2017-05-10T06:31:16.850Z,-3.36
2017-05-10T06:32:16.527Z,-3.43
2017-05-10T06:33:16.513Z,-3.39
2017-05-10T06:34:16.800Z,-3.41
2017-05-10T06:35:16.774Z,-3.4
2017-05-10T06:36:16.756Z,-3.34
2017-05-10T06:37:16.441Z,-3.3
2017-05-10T06:38:16.720Z,-3.26
2017-05-10T06:39:16.702Z,-3.21
2017-05-10T06:40:16.681Z,-3.28
2017-05-10T06:41:16.666Z,-3.15
2017-05-10T06:42:16.645Z,-3.07
2017-05-10T06:43:16.322Z,-3.19
2017-05-10T06:44:16.304Z,-3.26
2017-05-10T06:45:16.592Z,-3.19
2017-05-10T06:46:16.568Z,-3.25
2017-05-10T06:47:16.548Z,-3.16
2017-05-10T06:48:16.535Z,-3.19
2017-05-10T06:49:16.214Z,-3.25
2017-05-10T06:50:16.192Z,-3.25
2017-05-10T06:51:16.479Z,-3.31
2017-05-10T06:52:16.667Z,-3.23
2017-05-10T06:53:16.439Z,-3.26
2017-05-10T06:54:16.119Z,-3.16
2017-05-10T06:55:16.408Z,-3.25
2017-05-10T06:56:16.084Z,-3.16
2017-05-10T06:57:16.566Z,-3.08
2017-05-10T06:58:16.669Z,-3.08
2017-05-10T06:59:16.326Z,-3.08
2017-05-10T07:00:16.004Z,-2.84
2017-05-10T07:01:15.988Z,-2.72
2017-05-10T07:02:16.269Z,-2.71
2017-05-10T07:03:16.250Z,-2.8
2017-05-10T07:04:16.241Z,-2.68
2017-05-10T07:05:16.226Z,-2.84
2017-05-10T07:06:16.201Z,-2.97
2017-05-10T07:07:16.185Z,-2.79
2017-05-10T07:08:16.163Z,-2.65
2017-05-10T07:09:16.146Z,-2.69
2017-05-10T07:10:15.825Z,-2.47
2017-05-10T07:11:15.811Z,-2.44
2017-05-10T07:12:16.097Z,-2.65
2017-05-10T07:13:16.088Z,-2.64
2017-05-10T07:14:16.073Z,-2.59
2017-05-10T07:15:16.050Z,-2.58
2017-05-10T07:16:16.024Z,-2.69
2017-05-10T07:17:15.706Z,-2.51
2017-05-10T07:18:15.683Z,-2.5
2017-05-10T07:19:15.974Z,-2.33
2017-05-10T07:20:15.956Z,-2.14
2017-05-10T07:21:15.939Z,-2.1
2017-05-10T07:22:15.617Z,-2.04
2017-05-10T07:23:15.601Z,-1.82
2017-05-10T07:24:15.892Z,-1.88
2017-05-10T07:25:15.869Z,-1.62
2017-05-10T07:26:15.550Z,-1.71
2017-05-10T07:27:15.847Z,-2.11
2017-05-10T07:28:15.520Z,-1.95
2017-05-10T07:29:15.811Z,-1.89
2017-05-10T07:30:15.992Z,-2.04
2017-05-10T07:31:15.471Z,-2.13
2017-05-10T07:32:15.454Z,-2.18
2017-05-10T07:33:15.438Z,-2.43
2017-05-10T07:34:15.420Z,-2.41
2017-05-10T07:35:15.404Z,-2.25
2017-05-10T07:36:15.387Z,-2.06
2017-05-10T07:37:15.672Z,-2.01
2017-05-10T07:38:15.653Z,-1.71
2017-05-10T07:39:15.644Z,-1.5
2017-05-10T07:40:15.628Z,-1.88
2017-05-10T07:41:15.302Z,-1.92
2017-05-10T07:42:15.291Z,-1.83
2017-05-10T07:43:15.572Z,-1.89
2017-05-10T07:44:15.561Z,-1.51
2017-05-10T07:45:15.542Z,-1.43
2017-05-10T07:46:15.525Z,-1.14
2017-05-10T07:47:15.523Z,-1.1
2017-05-10T07:48:15.508Z,-1.39
2017-05-10T07:49:15.480Z,-1.8
2017-05-10T07:50:15.468Z,-1.88
2017-05-10T07:51:15.445Z,-1.7
2017-05-10T07:52:15.437Z,-1.59
2017-05-10T07:53:15.418Z,-1.44
2017-05-10T07:54:15.402Z,-1.67
2017-05-10T07:55:15.393Z,-1.51
2017-05-10T07:56:15.064Z,-1.32
2017-05-10T07:57:15.048Z,-1.23
2017-05-10T07:58:15.356Z,-1.47
2017-05-10T07:59:29.932Z,-1.51
2017-05-10T08:00:15.306Z,-1.54
2017-05-10T08:01:14.985Z,-1.2
2017-05-10T08:02:14.981Z,-1.56
2017-05-10T08:03:15.255Z,-1.74
2017-05-10T08:04:15.236Z,-1.65
2017-05-10T08:05:29.834Z,-1.82
2017-05-10T08:06:15.204Z,-1.65
2017-05-10T08:07:29.801Z,-1.39
2017-05-10T08:11:01.471Z,-1.32
2017-05-10T08:12:01.456Z,-1.23
2017-05-10T08:19:56.235Z,-0.34
2017-05-10T08:20:56.210Z,-0.52
2017-05-10T08:21:56.194Z,-1.2
2017-05-10T08:22:56.182Z,-1.31
2017-05-10T08:23:56.168Z,-1.23
2017-05-10T08:24:56.151Z,-1.39
2017-05-10T08:25:56.134Z,-1.26
2017-05-10T08:26:56.120Z,-1.25
2017-05-10T08:27:56.104Z,-1.15
2017-05-10T08:28:56.087Z,-0.93
2017-05-10T08:29:56.072Z,-0.67
2017-05-10T08:30:56.053Z,-0.8
2017-05-10T08:31:56.044Z,-0.77
2017-05-10T08:32:56.031Z,-0.76
2017-05-10T08:33:55.715Z,-1.17
2017-05-10T08:34:55.998Z,-1.51
2017-05-10T08:35:55.984Z,-1.59
2017-05-10T08:36:55.974Z,-1.49
2017-05-10T08:37:55.954Z,-1.5
2017-05-10T08:38:55.635Z,-1.5
2017-05-10T08:39:55.923Z,-1.65
2017-05-10T08:40:55.606Z,-1.68
2017-05-10T08:41:55.894Z,-1.67
2017-05-10T08:42:55.873Z,-1.35
2017-05-10T08:43:55.857Z,-1.18
2017-05-10T08:44:55.844Z,-1.17
2017-05-10T08:45:55.828Z,-1.14
2017-05-10T08:46:55.819Z,-1.35
2017-05-10T08:47:55.807Z,-1.32
2017-05-10T08:48:55.781Z,-1.41
2017-05-10T08:49:55.765Z,-1.32
2017-05-10T08:50:55.750Z,-1.33
2017-05-10T08:51:55.734Z,-1.31
2017-05-10T08:52:55.718Z,-0.96
2017-05-10T08:53:55.701Z,-1.15
2017-05-10T08:54:55.686Z,-1.18
2017-05-10T08:55:55.670Z,-1.15
2017-05-10T08:56:55.656Z,-1.29
2017-05-10T08:57:55.635Z,-1.41
2017-05-10T08:58:55.621Z,-1.44
2017-05-10T08:59:55.607Z,-1.08
2017-05-10T09:00:55.590Z,-0.55
2017-05-10T09:01:55.571Z,-0.21
2017-05-10T09:02:55.559Z,0.12
2017-05-10T09:03:55.547Z,0.1
2017-05-10T09:04:55.534Z,-0.77
2017-05-10T09:05:55.515Z,-1.32
2017-05-10T09:06:55.503Z,-1.29
2017-05-10T09:07:55.483Z,-1.33
2017-05-10T09:08:55.469Z,-1.02
2017-05-10T09:09:55.458Z,-0.74
2017-05-10T09:10:55.442Z,-0.7
2017-05-10T09:11:55.426Z,-0.8
2017-05-10T09:12:55.459Z,-0.74
2017-05-10T09:13:55.396Z,-0.56
2017-05-10T09:14:55.383Z,-0.19
2017-05-10T09:15:55.368Z,0.16
2017-05-10T09:16:55.350Z,0.26
2017-05-10T09:17:55.338Z,0.08
2017-05-10T09:18:55.325Z,-0.34
2017-05-10T09:19:55.308Z,-0.49
2017-05-10T09:20:55.292Z,-0.58
2017-05-10T09:21:55.277Z,-0.76
2017-05-10T09:22:55.262Z,-0.86
2017-05-10T09:23:55.245Z,-0.76
2017-05-10T09:24:55.250Z,-0.52
2017-05-10T09:25:55.232Z,-0.42
2017-05-10T09:26:55.242Z,-0.38
2017-05-10T09:27:55.189Z,-0.26
2017-05-10T09:28:55.182Z,0.13
2017-05-10T09:29:55.168Z,0.3
2017-05-10T09:30:55.147Z,-0.01
2017-05-10T09:31:55.138Z,-0.2
2017-05-10T09:32:55.113Z,0.12
2017-05-10T09:33:55.113Z,0.3
2017-05-10T09:34:55.087Z,0.74
2017-05-10T09:35:55.074Z,1.11
2017-05-10T09:36:55.061Z,0.9
2017-05-10T09:37:55.046Z,0.57
2017-05-10T09:38:55.051Z,-0.17
2017-05-10T09:39:55.021Z,-0.3
2017-05-10T09:40:55.005Z,-0.32
2017-05-10T09:41:54.690Z,0.25
2017-05-10T09:42:54.977Z,0.22
2017-05-10T09:43:54.977Z,0.49
2017-05-10T09:44:54.952Z,0.26
2017-05-10T09:45:54.939Z,0.13
2017-05-10T09:46:54.948Z,0.31
2017-05-10T09:47:54.906Z,-0.02
2017-05-10T09:48:54.927Z,-0.23
2017-05-10T09:49:54.895Z,0.12
2017-05-10T09:50:54.876Z,0.71
2017-05-10T09:51:54.862Z,1.18
2017-05-10T09:52:54.848Z,1.21
2017-05-10T09:53:54.825Z,1.24
2017-05-10T09:54:54.807Z,0.96
2017-05-10T09:55:54.803Z,0.78
2017-05-10T09:56:54.788Z,1.11
2017-05-10T09:57:54.768Z,0.74
2017-05-10T09:58:54.764Z,1.06
2017-05-10T09:59:54.445Z,1.1
2017-05-10T10:00:54.731Z,1.17
2017-05-10T10:01:54.714Z,1.43
2017-05-10T10:02:54.706Z,1.43
2017-05-10T10:03:54.693Z,1.39
2017-05-10T10:04:54.690Z,1.46
2017-05-10T10:05:54.665Z,1.43
2017-05-10T10:06:54.655Z,1.53
2017-05-10T10:07:54.641Z,1.72
2017-05-10T10:08:54.635Z,1.79
2017-05-10T10:09:54.618Z,1.82
2017-05-10T10:10:54.612Z,1.85
2017-05-10T10:11:54.597Z,1.98
2017-05-10T10:12:54.579Z,2.23
2017-05-10T10:13:54.580Z,2.09
2017-05-10T10:14:54.558Z,1.56
2017-05-10T10:15:54.547Z,1.47
2017-05-10T10:16:54.577Z,1.98
2017-05-10T10:17:54.521Z,2.19
2017-05-10T10:18:54.505Z,2.11
2017-05-10T10:19:54.497Z,2.12
2017-05-10T10:20:54.487Z,2.61
2017-05-10T10:21:54.477Z,2.9
2017-05-10T10:22:54.461Z,3.41
2017-05-10T10:23:54.452Z,3.62
2017-05-10T10:24:54.445Z,3.2
2017-05-10T10:25:54.428Z,2.84
2017-05-10T10:26:54.420Z,2.33
2017-05-10T10:27:54.406Z,2.65
2017-05-10T10:28:54.395Z,3.08
2017-05-10T10:29:54.384Z,3.41
2017-05-10T10:30:54.375Z,3.81
2017-05-10T10:31:54.364Z,3.63
2017-05-10T10:32:54.353Z,3.45
2017-05-10T10:33:54.342Z,3.89
2017-05-10T10:34:54.025Z,4
2017-05-10T10:35:54.317Z,3.82
2017-05-10T10:36:54.309Z,3.7
2017-05-10T10:37:54.298Z,3.44
2017-05-10T10:38:54.289Z,3.15
2017-05-10T10:39:54.274Z,2.99
2017-05-10T10:40:54.264Z,3.13
2017-05-10T10:41:54.257Z,2.94
2017-05-10T10:42:54.240Z,3.04
2017-05-10T10:43:54.236Z,3.15
2017-05-10T10:44:54.221Z,3.37
2017-05-10T10:45:54.208Z,2.76
2017-05-10T10:46:54.243Z,2.59
2017-05-10T10:47:53.885Z,1.7
2017-05-10T10:48:54.178Z,1.85
2017-05-10T10:49:54.159Z,2.48
2017-05-10T10:50:54.197Z,2.95
2017-05-10T10:51:54.139Z,3.19
2017-05-10T10:52:54.134Z,2.27
2017-05-10T10:53:54.119Z,2.19
2017-05-10T10:54:54.113Z,2.4
2017-05-10T10:55:54.101Z,2.11
2017-05-10T10:56:54.087Z,1.68
2017-05-10T10:57:54.069Z,1.71
2017-05-10T10:58:54.063Z,1.28
2017-05-10T10:59:54.050Z,1.32
2017-05-10T11:00:54.039Z,1.24
2017-05-10T11:01:54.021Z,1.36
2017-05-10T11:02:54.013Z,1.86
2017-05-10T11:03:53.998Z,2.45
2017-05-10T11:04:53.984Z,2.8
2017-05-10T11:05:53.973Z,2.05
2017-05-10T11:06:53.965Z,1.88
2017-05-10T11:07:53.949Z,1.79
2017-05-10T11:08:53.935Z,2.3
2017-05-10T11:09:53.926Z,2.56
2017-05-10T11:10:53.906Z,2.77
2017-05-10T11:11:53.894Z,3.19
2017-05-10T11:12:53.886Z,3.54
2017-05-10T11:13:53.874Z,3.57
2017-05-10T11:14:53.862Z,3.7
2017-05-10T11:15:53.844Z,4.17
2017-05-10T11:16:53.834Z,4.42
2017-05-10T11:17:53.824Z,3.53
2017-05-10T11:18:53.813Z,3.01
2017-05-10T11:19:53.501Z,3.17
2017-05-10T11:20:53.792Z,3.33
2017-05-10T11:21:53.780Z,2.22
2017-05-10T11:22:53.765Z,1.61
2017-05-10T11:23:53.755Z,1.68
2017-05-10T11:24:53.745Z,2.11
2017-05-10T11:25:53.734Z,2.95
2017-05-10T11:26:53.727Z,2.84
2017-05-10T11:27:53.409Z,2.23
2017-05-10T11:28:53.702Z,2.29
2017-05-10T11:29:53.687Z,2.45
2017-05-10T11:30:53.673Z,2.4
2017-05-10T11:31:53.664Z,2.51
2017-05-10T11:32:53.348Z,2.2
2017-05-10T11:33:53.331Z,1.75
2017-05-10T11:34:53.623Z,1.9
2017-05-10T11:35:53.311Z,2.23
2017-05-10T11:36:53.295Z,2.55
2017-05-10T11:37:53.281Z,2.51
2017-05-10T11:38:53.574Z,2.09
2017-05-10T11:39:53.258Z,2.18
2017-05-10T11:40:53.546Z,2.36
2017-05-10T11:41:53.235Z,2.45
2017-05-10T11:42:53.218Z,2.48
2017-05-10T11:43:53.507Z,2.27
2017-05-10T11:44:53.195Z,2.05
2017-05-10T11:45:53.184Z,2.01
2017-05-10T11:46:53.165Z,2.32
2017-05-10T11:47:53.455Z,2.59
2017-05-10T11:48:53.143Z,2.73
2017-05-10T11:49:53.431Z,2.81
2017-05-10T11:50:53.461Z,2.55
2017-05-10T11:51:53.401Z,2.8
2017-05-10T11:52:53.088Z,2.44
2017-05-10T11:53:53.083Z,2.51
2017-05-10T11:54:53.367Z,2.77
2017-05-10T11:55:53.361Z,2.71
2017-05-10T11:56:53.342Z,2.9
2017-05-10T11:57:53.325Z,3.1
2017-05-10T11:58:53.313Z,3.23
2017-05-10T11:59:53.303Z,3.57
2017-05-10T12:00:53.295Z,3.68
2017-05-10T12:01:53.280Z,3.6
2017-05-10T12:02:53.266Z,3.25
2017-05-10T12:03:53.253Z,3.22
2017-05-10T12:04:53.241Z,3.05
2017-05-10T12:05:53.228Z,2.83
2017-05-10T12:06:53.223Z,2.9
2017-05-10T12:07:53.205Z,2.83
2017-05-10T12:08:53.189Z,2.92
2017-05-10T12:09:53.176Z,2.97
2017-05-10T12:10:53.165Z,2.92
2017-05-10T12:11:53.161Z,3.22
2017-05-10T12:12:53.142Z,3.44
2017-05-10T12:13:53.136Z,3.22
2017-05-10T12:14:53.118Z,2.87
2017-05-10T12:15:53.105Z,2.38
2017-05-10T12:16:53.093Z,2.44
2017-05-10T12:17:53.087Z,2.48
2017-05-10T12:18:53.065Z,2.77
2017-05-10T12:19:53.058Z,3.28
2017-05-10T12:20:53.043Z,3.7
2017-05-10T12:21:53.032Z,3.96
2017-05-10T12:22:53.017Z,4.2
2017-05-10T12:23:53.007Z,4.02
2017-05-10T12:24:52.992Z,4.08
2017-05-10T12:25:52.978Z,4.28
2017-05-10T12:26:52.973Z,4.65
2017-05-10T12:27:52.958Z,4.69
2017-05-10T12:28:52.946Z,4.99
2017-05-10T12:29:52.945Z,4.86
2017-05-10T12:30:52.930Z,4.77
2017-05-10T12:31:52.918Z,4.94
2017-05-10T12:32:52.901Z,4.67
2017-05-10T12:33:52.889Z,4.07
2017-05-10T12:34:52.878Z,3.6
2017-05-10T12:35:52.871Z,3.42
2017-05-10T12:36:52.864Z,3.81
2017-05-10T12:37:52.847Z,3.53
2017-05-10T12:38:52.837Z,3.95
2017-05-10T12:39:52.840Z,4.57
2017-05-10T12:40:52.518Z,5.02
2017-05-10T12:41:52.804Z,5.04
2017-05-10T12:42:52.785Z,5.32
2017-05-10T12:43:52.489Z,5.45
2017-05-10T12:44:52.769Z,5.85
2017-05-10T12:45:52.759Z,5.8
2017-05-10T12:46:52.750Z,5.9
2017-05-10T12:47:52.738Z,5.93
2017-05-10T12:48:52.728Z,6.13
2017-05-10T12:49:52.716Z,5.8
2017-05-10T12:50:52.701Z,5.23
2017-05-10T12:51:52.698Z,4.57
2017-05-10T12:52:52.686Z,4.11
2017-05-10T12:53:52.676Z,4
2017-05-10T12:54:52.664Z,3.88
2017-05-10T12:55:52.655Z,3.86
2017-05-10T12:56:52.643Z,3.62
2017-05-10T12:57:52.636Z,3.78
2017-05-10T12:58:52.632Z,4.1
2017-05-10T12:59:52.312Z,3.98
2017-05-10T13:00:52.597Z,3.57
2017-05-10T13:01:52.601Z,2.89
2017-05-10T13:02:52.575Z,3.12
2017-05-10T13:03:52.578Z,3.41
2017-05-10T13:04:52.564Z,3.41
2017-05-10T13:05:52.539Z,3.46
2017-05-10T13:06:52.538Z,3.41
2017-05-10T13:07:52.518Z,3.67
2017-05-10T13:08:52.511Z,4.21
2017-05-10T13:09:52.504Z,4.38
2017-05-10T13:10:52.490Z,4.68
2017-05-10T13:11:52.476Z,4.79
2017-05-10T13:12:52.468Z,5.05
2017-05-10T13:13:52.453Z,4.91
2017-05-10T13:14:52.440Z,4.91
2017-05-10T13:15:52.420Z,4.68
2017-05-10T13:16:52.406Z,4.87
2017-05-10T13:17:52.403Z,5.24
2017-05-10T13:18:52.381Z,5.06
2017-05-10T13:19:52.373Z,4.91
2017-05-10T13:20:52.360Z,5.27
2017-05-10T13:21:52.046Z,5.26
2017-05-10T13:22:52.336Z,4.8
2017-05-10T13:23:52.323Z,4.61
2017-05-10T13:24:52.319Z,4.56
2017-05-10T13:25:52.305Z,4.87
2017-05-10T13:26:51.689Z,4.17
2017-05-10T13:27:52.286Z,3.92
2017-05-10T13:28:52.269Z,4.36
2017-05-10T13:29:52.259Z,4.54
2017-05-10T13:30:52.249Z,4.69
2017-05-10T13:31:52.232Z,5.04
2017-05-10T13:32:52.224Z,4.8
2017-05-10T13:33:52.212Z,4.86
2017-05-10T13:34:52.201Z,5.38
2017-05-10T13:35:52.194Z,5.59
2017-05-10T13:36:52.179Z,5.58
2017-05-10T13:37:52.167Z,5.85
2017-05-10T13:38:52.159Z,6.36
2017-05-10T13:39:52.144Z,6.53
2017-05-10T13:40:52.130Z,5.99
2017-05-10T13:41:52.123Z,5.52
2017-05-10T13:42:52.116Z,5.17
2017-05-10T13:43:52.103Z,4.39
2017-05-10T13:44:52.091Z,4.07
2017-05-10T13:45:52.076Z,4.34
2017-05-10T13:46:51.762Z,4.97
2017-05-10T13:47:52.055Z,5.32
2017-05-10T13:48:52.052Z,5.58
2017-05-10T13:49:52.030Z,5.92
2017-05-10T13:50:52.025Z,6.17
2017-05-10T13:51:52.011Z,6.19
2017-05-10T13:52:52.003Z,6.24
2017-05-10T13:53:51.991Z,6.14
2017-05-10T13:54:51.974Z,5.35
2017-05-10T13:55:51.663Z,5.45
2017-05-10T13:56:51.953Z,5.66
2017-05-10T13:57:51.943Z,5.8
2017-05-10T13:58:51.934Z,5.95
2017-05-10T13:59:51.922Z,5.95
2017-05-10T14:00:51.909Z,5.51
2017-05-10T14:01:51.894Z,5.6
2017-05-10T14:02:51.891Z,5.56
2017-05-10T14:03:51.878Z,5.47
2017-05-10T14:04:51.863Z,4.79
2017-05-10T14:05:51.854Z,4.69
2017-05-10T14:06:51.841Z,4.59
2017-05-10T14:07:51.830Z,4.64
2017-05-10T14:08:51.820Z,4.9
2017-05-10T14:09:51.805Z,4.61